• Join FlightAware (Why Join?)
  • Login
  • US Flag 
07:05AM EDT


 

Airport Tracker/Info


-or-


 

Live Flight TrackerFlight Track Log ✈ GJS3657 ✈ 20-Jun-2013 ✈ KALB - KORD

Flight Track Log - Related Links

Times and Time Zones

All times are in EDT time to prevent confusion due to time zone crossing. See the GJS3657 flight status page for this flight to view local times or setup timezone preferences in your user account.

Time Position Orientation Groundspeed Altitude Reporting Facility
EDT Latitude Longitude Course Direction KTS MPH feet Rate Location/Type
07:08AM 42.7672 -73.8061 340° North 150 173 1,100  Level Boston Center
07:09AM 42.8150 -73.8297 340° North 198 228 2,900 2,280 Climbing Boston Center
07:11AM 42.9058 -73.9083 328° Northwest 262 302 7,000 2,820 Climbing Boston Center
07:12AM 42.9697 -73.9611 329° Northwest 267 307 10,100 2,700 Climbing Boston Center
07:13AM 43.0122 -74.0386 307° West 264 304 12,500 2,100 Climbing Boston Center
07:14AM 43.0356 -74.1531 286° West 295 339 14,400 1,920 Climbing Boston Center
07:15AM 43.0608 -74.2703 286° West 315 362 16,400 1,980 Climbing Boston Center
07:16AM 43.0858 -74.3961 285° West 338 389 18,400 1,680 Climbing Boston Center
07:17AM 43.1089 -74.5106 285° West 338 389 19,800 1,500 Climbing Boston Center
07:18AM 43.1336 -74.6367 285° West 344 396 21,500 1,680 Climbing Boston Center
07:19AM 43.1539 -74.7683 282° West 344 396 23,600 1,800 Climbing Boston Center
07:20AM 43.1819 -74.9258 284° West 349 402 25,500 1,380 Climbing Boston Center
07:21AM 43.2017 -75.0633 281° West 361 415 26,700 1,080 Climbing Boston Center
07:22AM 43.2186 -75.2353 278° West 373 429 27,900 960 Climbing Boston Center
07:24AM 43.2356 -75.3842 279° West 388 447 28,900 1,020 Climbing Boston Center
07:25AM 43.2514 -75.5761 277° West 388 447 30,200 1,200 Climbing Boston Center
07:26AM 43.2492 -75.7269 269° West 388 447 31,400 1,200 Climbing Boston Center
07:27AM 43.2450 -75.8750 268° West 388 447 32,600 1,200 Climbing Boston Center
07:28AM 43.2444 -76.0206 270° West 388 447 33,800 1,020 Climbing Boston Center
07:30AM 43.2167 -76.3333 263° West 380 437 36,100 900 Climbing Toronto Center
07:31AM 43.2167 -76.4833 270° West 380 437 37,000 900 Climbing Toronto Center
07:32AM 43.2167 -76.6167 270° West 370 426 37,900 480 Climbing Toronto Center
07:33AM 43.2167 -76.7500 270° West 370 426 38,000  Climbing Toronto Center
07:34AM 43.2167 -76.9167 270° West 380 437 38,000  Level Toronto Center
07:35AM 43.2000 -77.0500 260° West 390 449 38,000  Level Toronto Center
07:36AM 43.2000 -77.2167 270° West 380 437 38,000  Level Toronto Center
07:37AM 43.2000 -77.3500 270° West 370 426 38,000  Level Toronto Center
07:38AM 43.2000 -77.4833 270° West 360 414 38,000  Level Toronto Center
07:39AM 43.2025 -77.6467 271° West 372 428 38,000  Level Cleveland Center
07:40AM 43.1997 -77.7864 268° West 372 428 38,000  Level Cleveland Center
07:41AM 43.1947 -77.9264 267° West 372 428 38,000  Level Cleveland Center
07:42AM 43.1894 -78.0747 267° West 377 434 38,000  Level Cleveland Center
07:43AM 43.1842 -78.2172 267° West 382 440 38,000  Level Cleveland Center
07:44AM 43.1786 -78.3597 267° West 382 440 38,000  Level Cleveland Center
07:45AM 43.1731 -78.5022 267° West 382 440 38,000  Level Cleveland Center
07:46AM 43.1692 -78.6419 268° West 382 440 38,000  Level Cleveland Center
07:47AM 43.1614 -78.7986 266° West 382 440 38,000  Level Cleveland Center
07:48AM 43.1500 -78.9000 261° West 370 426 38,000  Level Toronto Center
07:49AM 43.1500 -79.0333 270° West 380 437 38,000  Level Toronto Center
07:50AM 43.1333 -79.2000 262° West 380 437 38,000  Level Toronto Center
07:51AM 43.1333 -79.3333 270° West 390 449 38,000  Level Toronto Center
07:52AM 43.1333 -79.4667 270° West 390 449 38,000  Level Toronto Center
07:53AM 43.1333 -79.6333 270° West 390 449 38,000  Level Toronto Center
07:54AM 43.1333 -79.8000 270° West 390 449 38,000  Level Toronto Center
07:55AM 43.1167 -79.9333 260° West 390 449 38,000  Level Toronto Center
07:56AM 43.1167 -80.0833 270° West 390 449 38,000  Level Toronto Center
07:57AM 43.1167 -80.2333 270° West 400 460 38,000  Level Toronto Center
07:58AM 43.1167 -80.3833 270° West 400 460 38,000  Level Toronto Center
07:59AM 43.1000 -80.5167 260° West 400 460 38,000  Level Toronto Center
08:00AM 43.1000 -80.6833 270° West 410 472 38,000  Level Toronto Center
08:01AM 43.0833 -80.8500 262° West 410 472 38,000  Level Toronto Center
08:02AM 43.0833 -81.0000 270° West 410 472 38,000  Level Toronto Center
08:03AM 43.0833 -81.1667 270° West 410 472 38,000  Level Toronto Center
08:04AM 43.0667 -81.3167 261° West 420 483 38,000  Level Toronto Center
08:05AM 43.0667 -81.4833 270° West 420 483 38,000  Level Toronto Center
08:06AM 43.0667 -81.6333 270° West 430 495 38,000  Level Toronto Center
08:07AM 43.0667 -81.8000 270° West 420 483 38,000  Level Toronto Center
08:08AM 43.0333 -81.9667 255° West 430 495 38,000  Level Toronto Center
08:09AM 43.0333 -82.1167 270° West 420 483 38,000  Level Toronto Center
08:10AM 43.0333 -82.2833 270° West 420 483 38,000  Level Toronto Center
08:11AM 43.0333 -82.4333 270° West 410 472 38,000 -360 Level Toronto Center
08:12AM 43.0167 -82.6000 262° West 410 472 37,300 -900 Descending Toronto Center
08:13AM 43.0000 -82.7500 261° West 410 472 36,200 -1,080 Descending Toronto Center
08:14AM 43.0000 -82.9000 270° West 420 483 35,200 -960 Descending Toronto Center
08:15AM 43.0333 -83.0500 287° West 420 483 34,300 -1,020 Descending Toronto Center
08:16AM 43.0667 -83.2167 285° West 420 483 33,200 -960 Descending Toronto Center
08:17AM 43.1208 -83.3622 297° West 415 478 32,300 -600 Descending Cleveland Center
08:18AM 43.1189 -83.5186 269° West 415 478 32,000 -540 Descending Cleveland Center
08:19AM 43.0408 -83.6369 228° Southwest 381 438 31,300 -900 Descending Cleveland Center
08:20AM 42.9483 -83.7458 221° Southwest 412 474 30,300 -660 Descending Cleveland Center
08:21AM 42.8842 -83.8786 237° Southwest 418 481 30,000 -180 Descending Cleveland Center
08:22AM 42.8858 -84.0375 271° West 407 468 30,000  Level Cleveland Center
08:23AM 42.8847 -84.2019 270° West 420 483 30,000  Level Cleveland Center
08:24AM 42.8836 -84.3661 270° West 426 490 30,000  Level Cleveland Center
08:25AM 42.8847 -84.5278 271° West 431 496 30,000  Level Cleveland Center
08:26AM 42.8658 -84.7575 264° West 429 494 30,000  Level Chicago Center
08:27AM 42.8492 -84.9183 262° West 430 495 30,000  Level Chicago Center
08:28AM 42.8325 -85.0772 262° West 424 488 30,000 -60 Level Chicago Center
08:30AM 42.8153 -85.2342 262° West 420 483 29,900 -1,020 Descending Chicago Center
08:31AM 42.7975 -85.3928 261° West 422 486 27,900 -1,980 Descending Chicago Center
08:32AM 42.7781 -85.5464 260° West 415 478 25,900 -2,160 Descending Chicago Center
08:33AM 42.7475 -85.7156 256° West 387 445 23,500 -2,160 Descending Chicago Center
08:34AM 42.7219 -85.8514 256° West 373 429 21,500 -1,560 Descending Chicago Center
08:35AM 42.6983 -85.9867 257° West 365 420 20,300 -780 Descending Chicago Center
08:36AM 42.6717 -86.1283 256° West 379 436 20,000 -180 Descending Chicago Center
08:37AM 42.6453 -86.2722 256° West 388 447 20,000 -780 Level Chicago Center
08:38AM 42.6183 -86.4142 256° West 388 447 18,500 -1,560 Descending Chicago Center
08:39AM 42.5928 -86.5531 256° West 381 438 16,900 -1,620 Descending Chicago Center
08:40AM 42.5675 -86.6822 255° West 358 412 15,200 -1,800 Descending Chicago Center
08:41AM 42.5319 -86.8336 252° West 353 406 13,200 -1,740 Descending Chicago Center
08:42AM 42.4983 -86.9564 250° West 348 400 11,700 -1,500 Descending Chicago Center
08:43AM 42.4639 -87.0753 249° West 343 395 10,200 -1,080 Descending Chicago Center
08:44AM 42.4364 -87.1767 250° West 300 345 9,600 -780 Descending Chicago Center
08:45AM 42.4089 -87.2756 249° West 283 326 8,700 -1,020 Descending Chicago Center
08:46AM 42.3833 -87.3747 251° West 278 320 7,600 -1,140 Descending Chicago Center
08:47AM 42.3508 -87.4869 249° West 275 316 6,400 -780 Descending Chicago Center
08:48AM 42.3189 -87.5736 244° Southwest 265 305 6,000 -240 Descending Chicago Center
08:49AM 42.2408 -87.5656 176° South 275 316 6,000  Level Chicago Center
08:50AM 42.1669 -87.5581 176° South 268 308 6,000 -60 Level Chicago Center
08:51AM 42.0958 -87.5478 174° South 260 299 5,900 -660 Descending Chicago Center
08:52AM 42.0369 -87.5881 207° Southwest 233 268 4,700 -960 Descending Chicago Center
08:53AM 42.0044 -87.6556 237° Southwest 222 255 4,000 -780 Descending Chicago Center
08:54AM 42.0031 -87.7350 269° West 218 251 3,100 -1,020 Descending Chicago Center
08:55AM 42.0036 -87.8072 271° West 203 234 2,000 -960 Descending Chicago Center
08:56AM 42.0031 -87.8669 269° West 183 211 1,200 -480 Descending Chicago Center
08:57AM 42.0036 -87.9239 271° West 178 205 1,100 -120 Descending Chicago Center
08:59AM 41.9817 -87.9067 206° Southwest  Level Estimated